createdAt,value
2022-10-11T00:00:37.231Z,7.40
2022-10-11T00:03:05.239Z,8.00
2022-10-11T00:05:33.402Z,8.52
2022-10-11T00:08:00.801Z,7.37
2022-10-11T00:10:28.476Z,7.12
2022-10-11T00:12:55.874Z,7.10
2022-10-11T00:15:23.869Z,8.10
2022-10-11T00:17:51.626Z,7.12
2022-10-11T00:20:19.270Z,7.85
2022-10-11T00:22:46.684Z,7.37
2022-10-11T00:25:14.389Z,7.43
2022-10-11T00:27:41.989Z,6.32
2022-10-11T00:30:10.372Z,6.43
2022-10-11T00:32:38.784Z,6.75
2022-10-11T00:35:07.261Z,7.40
2022-10-11T00:37:36.722Z,6.53
2022-10-11T00:40:08.411Z,7.55
2022-10-11T00:42:36.068Z,7.57
2022-10-11T00:45:31.755Z,7.37
2022-10-11T00:48:03.507Z,9.05
2022-10-11T00:50:33.737Z,8.40
2022-10-11T00:53:06.679Z,8.45
2022-10-11T00:55:39.384Z,8.15
2022-10-11T00:58:07.426Z,8.50
2022-10-11T01:00:35.089Z,8.35
2022-10-11T01:03:03.274Z,7.03
2022-10-11T01:05:31.484Z,7.15
2022-10-11T01:08:00.372Z,6.75
2022-10-11T01:10:28.387Z,6.57
2022-10-11T01:13:08.053Z,7.70
2022-10-11T01:15:43.390Z,6.57
2022-10-11T01:18:15.211Z,7.07
2022-10-11T01:21:07.074Z,7.15
2022-10-11T01:23:52.742Z,7.15
2022-10-11T01:26:23.341Z,7.40
2022-10-11T01:29:22.104Z,7.40
2022-10-11T01:32:30.060Z,7.53
2022-10-11T01:35:22.138Z,8.25
2022-10-11T01:38:03.307Z,7.22
2022-10-11T01:40:40.397Z,7.68
2022-10-11T01:43:08.380Z,7.87
2022-10-11T01:45:36.465Z,7.65
2022-10-11T01:48:09.619Z,8.27
2022-10-11T01:50:45.267Z,8.30
2022-10-11T01:53:25.552Z,8.80
2022-10-11T01:55:58.062Z,8.90
2022-10-11T01:58:39.363Z,8.75
2022-10-11T02:01:15.739Z,8.57
2022-10-11T02:03:58.184Z,7.90
2022-10-11T02:06:57.319Z,7.72
2022-10-11T02:09:33.533Z,6.23
2022-10-11T02:12:05.572Z,6.47
2022-10-11T02:14:37.568Z,6.28
2022-10-11T02:17:10.870Z,7.12
2022-10-11T02:19:42.962Z,5.95
2022-10-11T02:22:18.340Z,6.13
2022-10-11T02:24:50.382Z,6.28
2022-10-11T02:27:20.563Z,6.07
2022-10-11T02:29:49.218Z,6.00
2022-10-11T02:32:17.475Z,6.00
2022-10-11T02:34:47.812Z,6.30
2022-10-11T02:37:32.004Z,6.87
2022-10-11T02:40:23.673Z,6.05
2022-10-11T02:42:58.757Z,6.40
2022-10-11T02:45:42.322Z,6.20
2022-10-11T02:48:11.556Z,6.23
2022-10-11T02:50:40.132Z,6.20
2022-10-11T02:53:08.210Z,6.62
2022-10-11T02:55:36.433Z,7.07
2022-10-11T02:58:03.891Z,6.90
2022-10-11T03:00:31.501Z,6.47
2022-10-11T03:02:59.408Z,6.45
2022-10-11T03:05:26.885Z,6.53
2022-10-11T03:07:54.411Z,6.95
2022-10-11T03:10:22.155Z,6.95
2022-10-11T03:12:49.614Z,7.00
2022-10-11T03:15:17.065Z,6.60
2022-10-11T03:17:44.763Z,6.65
2022-10-11T03:20:12.209Z,6.95
2022-10-11T03:22:39.711Z,6.55
2022-10-11T03:25:07.812Z,6.50
2022-10-11T03:27:35.581Z,6.43
2022-10-11T03:30:03.567Z,6.70
2022-10-11T03:32:31.225Z,6.75
2022-10-11T03:34:58.647Z,6.32
2022-10-11T03:37:26.143Z,6.40
2022-10-11T03:39:53.896Z,7.97
2022-10-11T03:42:21.592Z,7.12
2022-10-11T03:44:51.729Z,7.40
2022-10-11T03:47:20.062Z,7.03
2022-10-11T03:49:47.488Z,6.57
2022-10-11T03:52:14.978Z,6.82
2022-10-11T03:54:43.106Z,6.72
2022-10-11T03:57:10.562Z,6.57
2022-10-11T03:59:41.097Z,7.12
2022-10-11T04:02:09.377Z,6.53
2022-10-11T04:04:37.172Z,6.65
2022-10-11T04:07:04.661Z,6.45
2022-10-11T04:09:32.209Z,6.75
2022-10-11T04:11:59.977Z,6.40
2022-10-11T04:14:27.432Z,6.97
2022-10-11T04:16:57.377Z,6.57
2022-10-11T04:19:28.220Z,6.55
2022-10-11T04:21:55.806Z,6.15
2022-10-11T04:24:23.218Z,6.37
2022-10-11T04:26:50.916Z,6.40
2022-10-11T04:29:18.392Z,6.57
2022-10-11T04:31:49.167Z,6.50
2022-10-11T04:34:17.333Z,6.68
2022-10-11T04:36:49.589Z,5.95
2022-10-11T04:39:17.634Z,7.10
2022-10-11T04:41:45.320Z,6.03
2022-10-11T04:44:12.742Z,6.35
2022-10-11T04:46:40.371Z,6.15
2022-10-11T04:49:07.836Z,6.93
2022-10-11T04:51:35.359Z,6.83
2022-10-11T04:54:03.411Z,7.87
2022-10-11T04:56:30.994Z,7.18
2022-10-11T04:58:58.413Z,7.47
2022-10-11T05:01:26.144Z,7.70
2022-10-11T05:03:53.584Z,6.80
2022-10-11T05:06:21.013Z,7.12
2022-10-11T05:08:48.755Z,7.12
2022-10-11T05:11:17.367Z,6.78
2022-10-11T05:13:45.989Z,7.00
2022-10-11T05:16:14.583Z,7.60
2022-10-11T05:18:42.788Z,7.78
2022-10-11T05:21:24.105Z,7.28
2022-10-11T05:23:53.051Z,6.95
2022-10-11T05:26:20.762Z,7.62
2022-10-11T05:28:48.268Z,9.60
2022-10-11T05:31:16.425Z,9.38
2022-10-11T05:33:44.159Z,9.40
2022-10-11T05:36:12.137Z,8.88
2022-10-11T05:38:40.409Z,9.70
2022-10-11T05:41:11.198Z,9.67
2022-10-11T05:43:38.654Z,9.65
2022-10-11T05:46:06.816Z,8.55
2022-10-11T05:48:34.677Z,8.60
2022-10-11T05:51:07.464Z,8.23
2022-10-11T05:53:35.296Z,8.63
2022-10-11T05:56:03.170Z,9.13
2022-10-11T05:58:31.214Z,8.77
2022-10-11T06:00:58.960Z,8.30
2022-10-11T06:03:26.711Z,9.48
2022-10-11T06:05:56.939Z,10.90
2022-10-11T06:08:24.723Z,11.00
2022-10-11T06:10:52.411Z,11.18
2022-10-11T06:13:19.785Z,11.12
2022-10-11T06:15:47.230Z,11.63
2022-10-11T06:18:15.283Z,10.97
2022-10-11T06:20:42.784Z,11.73
2022-10-11T06:23:10.215Z,11.10
2022-10-11T06:25:37.920Z,11.90
2022-10-11T06:28:05.307Z,10.75
2022-10-11T06:30:32.747Z,11.47
2022-10-11T06:33:04.685Z,11.00
2022-10-11T06:35:32.510Z,11.27
2022-10-11T06:38:00.234Z,10.18
2022-10-11T06:40:27.745Z,10.32
2022-10-11T06:42:55.193Z,9.53
2022-10-11T06:45:22.889Z,10.10
2022-10-11T06:47:50.298Z,10.70
2022-10-11T06:50:29.894Z,9.95
2022-10-11T06:53:08.665Z,10.63
2022-10-11T06:55:36.118Z,11.13
2022-10-11T06:58:03.540Z,10.90
2022-10-11T07:00:31.272Z,11.12
2022-10-11T07:02:58.687Z,11.15
2022-10-11T07:05:26.175Z,10.82
2022-10-11T07:07:53.894Z,10.80
2022-10-11T07:10:21.338Z,10.77
2022-10-11T07:12:48.739Z,11.25
2022-10-11T07:15:16.423Z,11.48
2022-10-11T07:17:43.851Z,12.55
2022-10-11T07:20:11.840Z,12.70
2022-10-11T07:22:39.520Z,11.38
2022-10-11T07:25:07.237Z,11.00
2022-10-11T07:27:34.687Z,10.93
2022-10-11T07:30:02.584Z,11.70
2022-10-11T07:32:30.280Z,10.47
2022-10-11T07:34:57.823Z,10.68
2022-10-11T07:37:25.576Z,11.20
2022-10-11T07:39:58.876Z,11.05
2022-10-11T07:42:26.620Z,11.55
2022-10-11T07:44:54.017Z,11.47
2022-10-11T07:47:21.459Z,10.98
2022-10-11T07:49:49.216Z,11.45
2022-10-11T07:52:16.615Z,11.48
2022-10-11T07:54:44.102Z,12.18
2022-10-11T07:57:11.857Z,10.93
2022-10-11T07:59:39.495Z,11.63
2022-10-11T08:02:11.864Z,10.52
2022-10-11T08:04:39.716Z,11.73
2022-10-11T08:07:07.168Z,12.20
2022-10-11T08:09:34.700Z,11.60
2022-10-11T08:12:02.486Z,11.02
2022-10-11T08:14:29.875Z,11.55
2022-10-11T08:16:57.223Z,10.20
2022-10-11T08:19:24.974Z,11.60
2022-10-11T08:21:52.406Z,10.27
2022-10-11T08:24:20.938Z,10.52
2022-10-11T08:26:48.749Z,10.55
2022-10-11T08:29:16.176Z,11.10
2022-10-11T08:31:44.639Z,10.27
2022-10-11T08:34:12.549Z,10.23
2022-10-11T08:36:40.054Z,9.65
2022-10-11T08:39:07.961Z,10.60
2022-10-11T08:41:48.498Z,9.15
2022-10-11T08:45:10.136Z,9.95
2022-10-11T08:47:34.057Z,9.07
2022-10-11T08:50:04.621Z,11.20
2022-10-11T08:52:43.173Z,11.20
2022-10-11T08:55:32.188Z,10.80
2022-10-11T08:57:59.681Z,9.75
2022-10-11T09:00:31.169Z,9.70
2022-10-11T09:03:20.255Z,9.30
2022-10-11T09:06:06.428Z,8.07
2022-10-11T09:09:04.717Z,7.90
2022-10-11T09:11:32.327Z,7.85
2022-10-11T10:01:08.004Z,8.70
2022-10-11T10:03:41.290Z,9.48
2022-10-11T10:06:24.893Z,9.07
2022-10-11T10:08:52.616Z,9.13
2022-10-11T10:11:20.142Z,9.07
2022-10-11T10:13:51.659Z,9.02
2022-10-11T10:52:31.987Z,12.60
2022-10-11T10:55:24.190Z,12.50
2022-10-11T10:58:20.396Z,12.27
2022-10-11T11:00:50.405Z,11.75
2022-10-11T11:03:44.778Z,11.32
2022-10-11T11:06:35.689Z,11.27
2022-10-11T11:09:14.180Z,11.20
2022-10-11T11:11:56.521Z,11.55
2022-10-11T11:14:45.898Z,11.45
2022-10-11T11:17:22.491Z,11.40
2022-10-11T11:20:12.060Z,11.90
2022-10-11T11:22:52.674Z,12.40
2022-10-11T11:25:26.581Z,12.15
2022-10-11T11:28:03.649Z,12.50
2022-10-11T11:30:46.940Z,12.93
2022-10-11T11:33:53.785Z,11.77
2022-10-11T11:36:34.541Z,11.90
2022-10-11T11:39:05.109Z,12.32
2022-10-11T11:41:39.717Z,12.10
2022-10-11T11:44:11.365Z,12.52
2022-10-11T11:46:44.968Z,11.63
2022-10-11T11:49:19.360Z,11.53
2022-10-11T11:51:47.350Z,11.23
2022-10-11T11:54:33.422Z,11.50
2022-10-11T11:57:41.779Z,10.95
2022-10-11T12:00:31.587Z,11.63
2022-10-11T12:03:11.872Z,12.27
2022-10-11T12:06:14.561Z,11.27
2022-10-11T12:08:44.847Z,11.35
2022-10-11T12:11:31.675Z,12.25
2022-10-11T12:14:15.860Z,11.68
2022-10-11T12:17:05.371Z,10.67
2022-10-11T12:19:33.278Z,10.48
2022-10-11T12:22:36.677Z,10.02
2022-10-11T12:25:13.813Z,9.57
2022-10-11T12:27:46.808Z,10.82
2022-10-11T12:30:42.618Z,11.47
2022-10-11T12:33:16.295Z,11.27
2022-10-11T12:35:55.710Z,11.38
2022-10-11T12:38:31.919Z,10.80
2022-10-11T12:41:08.880Z,11.00
2022-10-11T12:43:48.641Z,12.53
2022-10-11T12:46:28.320Z,11.52
2022-10-11T12:49:12.809Z,10.98
2022-10-11T12:52:03.363Z,11.15
2022-10-11T12:54:49.162Z,11.05
2022-10-11T12:57:31.753Z,11.10
2022-10-11T13:00:29.975Z,10.93
2022-10-11T13:03:03.430Z,10.15
2022-10-11T13:05:47.818Z,11.20
2022-10-11T13:08:25.632Z,9.23
2022-10-11T13:10:53.423Z,9.87
2022-10-11T13:13:24.454Z,9.52
2022-10-11T13:15:53.338Z,10.18
2022-10-11T13:18:23.330Z,9.80
2022-10-11T13:20:50.892Z,9.55
2022-10-11T13:23:27.795Z,9.70
2022-10-11T13:25:56.123Z,9.65
2022-10-11T13:28:23.934Z,8.70
2022-10-11T13:30:54.925Z,8.70
2022-10-11T13:33:32.269Z,8.35
2022-10-11T13:36:01.228Z,9.07
2022-10-11T13:38:33.957Z,8.60
2022-10-11T13:41:06.459Z,9.20
2022-10-11T13:43:34.744Z,8.50
2022-10-11T13:46:06.305Z,9.55
2022-10-11T13:48:40.743Z,8.50
2022-10-11T13:51:27.849Z,8.40
2022-10-11T13:54:00.159Z,9.07
2022-10-11T13:56:29.509Z,8.85
2022-10-11T13:58:57.554Z,7.93
2022-10-11T14:01:27.858Z,8.37
2022-10-11T14:03:58.919Z,8.80
2022-10-11T14:06:51.376Z,8.00
2022-10-11T14:09:21.991Z,7.95
2022-10-11T14:11:49.889Z,7.95
2022-10-11T14:14:32.885Z,7.70
2022-10-11T14:17:17.015Z,8.07
2022-10-11T14:19:46.494Z,8.13
2022-10-11T14:22:18.669Z,7.60
2022-10-11T14:24:49.008Z,7.87
2022-10-11T14:27:20.565Z,8.17
2022-10-11T14:30:06.081Z,8.05
2022-10-11T14:32:36.561Z,7.35
2022-10-11T14:35:04.432Z,7.78
2022-10-11T14:37:32.050Z,7.45
2022-10-11T14:40:00.028Z,6.93
2022-10-11T14:42:27.508Z,7.05
2022-10-11T14:45:00.837Z,7.20
2022-10-11T14:47:28.612Z,6.60
2022-10-11T14:49:56.230Z,6.75
2022-10-11T14:52:23.633Z,7.00
2022-10-11T14:54:51.316Z,6.70
2022-10-11T14:57:18.825Z,6.40
2022-10-11T14:59:46.336Z,6.97
2022-10-11T15:02:15.530Z,6.68
2022-10-11T15:04:42.909Z,6.63
2022-10-11T15:07:12.220Z,7.35
2022-10-11T15:09:39.901Z,6.72
2022-10-11T15:12:08.920Z,6.60
2022-10-11T15:14:36.326Z,6.97
2022-10-11T15:17:04.072Z,6.53
2022-10-11T15:19:31.820Z,5.97
2022-10-11T15:22:02.250Z,6.50
2022-10-11T15:24:29.882Z,6.07
2022-10-11T15:26:57.325Z,6.18
2022-10-11T15:29:24.861Z,5.90
2022-10-11T15:31:52.663Z,6.57
2022-10-11T15:34:20.135Z,6.47
2022-10-11T15:36:47.605Z,6.07
2022-10-11T15:39:24.358Z,6.28
2022-10-11T15:41:51.783Z,5.93
2022-10-11T15:44:19.615Z,6.00
2022-10-11T15:46:47.140Z,5.90
2022-10-11T15:49:14.854Z,5.80
2022-10-11T15:51:42.622Z,6.20
2022-10-11T15:54:10.085Z,5.73
2022-10-11T15:56:37.510Z,6.20
2022-10-11T15:59:05.337Z,6.15
2022-10-11T16:01:32.959Z,6.47
2022-10-11T16:04:00.706Z,5.97
2022-10-11T16:06:28.184Z,6.33
2022-10-11T16:08:56.071Z,7.15
2022-10-11T16:11:23.790Z,6.22
2022-10-11T16:13:51.237Z,6.12
2022-10-11T16:16:18.686Z,6.12
2022-10-11T16:18:46.485Z,6.30
2022-10-11T16:21:15.544Z,6.37
2022-10-11T16:23:43.158Z,6.18
2022-10-11T16:26:13.424Z,6.57
2022-10-11T16:28:42.037Z,7.10
2022-10-11T16:31:13.716Z,6.57
2022-10-11T16:33:47.793Z,6.97
2022-10-11T16:36:32.136Z,6.85
2022-10-11T16:39:00.986Z,6.28
2022-10-11T16:41:28.473Z,5.68
2022-10-11T16:43:56.203Z,6.13
2022-10-11T16:46:24.263Z,5.55
2022-10-11T16:48:54.196Z,5.82
2022-10-11T16:51:21.789Z,5.87
2022-10-11T16:53:49.917Z,5.80
2022-10-11T16:56:18.142Z,5.47
2022-10-11T16:58:45.643Z,5.35
2022-10-11T17:01:13.430Z,6.25
2022-10-11T17:03:40.929Z,5.70
2022-10-11T17:06:08.992Z,6.15
2022-10-11T17:08:36.975Z,7.00
2022-10-11T17:11:04.574Z,6.60
2022-10-11T17:13:32.091Z,7.43
2022-10-11T17:15:59.869Z,6.82
2022-10-11T17:18:27.503Z,7.60
2022-10-11T17:21:03.571Z,7.10
2022-10-11T17:23:31.350Z,7.35
2022-10-11T17:26:02.617Z,8.00
2022-10-11T17:28:33.697Z,8.43
2022-10-11T17:31:01.787Z,8.20
2022-10-11T17:33:29.209Z,7.43
2022-10-11T17:35:58.868Z,6.55
2022-10-11T17:38:27.458Z,6.80
2022-10-11T17:41:02.492Z,7.30
2022-10-11T17:43:31.031Z,6.80
2022-10-11T17:45:59.722Z,7.00
2022-10-11T17:48:27.841Z,7.05
2022-10-11T17:50:55.607Z,6.87
2022-10-11T17:53:23.289Z,7.28
2022-10-11T17:55:50.880Z,6.87
2022-10-11T17:58:18.753Z,7.97
2022-10-11T18:00:46.356Z,7.43
2022-10-11T18:03:14.214Z,8.25
2022-10-11T18:05:42.213Z,8.60
2022-10-11T18:08:11.094Z,8.55
2022-10-11T18:10:38.754Z,8.73
2022-10-11T18:13:06.955Z,9.68
2022-10-11T18:15:34.930Z,9.30
2022-10-11T18:18:04.904Z,9.63
2022-10-11T18:20:32.613Z,10.50
2022-10-11T18:23:00.329Z,10.13
2022-10-11T18:25:28.030Z,10.63
2022-10-11T18:27:55.975Z,10.95
2022-10-11T18:30:23.386Z,11.07
2022-10-11T18:32:51.173Z,13.65
2022-10-11T18:35:18.597Z,18.33
2022-10-11T18:37:46.163Z,19.45
2022-10-11T18:40:14.389Z,17.42
2022-10-11T18:42:41.829Z,15.13
2022-10-11T18:45:10.437Z,11.98
2022-10-11T18:47:38.179Z,8.30
2022-10-11T18:50:06.243Z,7.37
2022-10-11T18:52:33.701Z,7.37
2022-10-11T18:55:03.976Z,7.10
2022-10-11T18:57:31.508Z,10.93
2022-10-11T19:00:01.366Z,12.23
2022-10-11T19:02:35.304Z,15.27
2022-10-11T19:05:03.148Z,15.00
2022-10-11T19:07:30.678Z,19.33
2022-10-11T19:09:58.528Z,20.75
2022-10-11T19:12:26.148Z,24.37
2022-10-11T19:14:54.813Z,23.83
2022-10-11T19:17:22.794Z,21.30
2022-10-11T19:19:51.355Z,17.65
2022-10-11T19:22:18.813Z,13.90
2022-10-11T19:24:46.531Z,11.20
2022-10-11T19:27:13.947Z,9.27
2022-10-11T19:29:41.755Z,8.27
2022-10-11T19:32:10.370Z,8.05
2022-10-11T19:34:37.817Z,6.12
2022-10-11T19:37:06.008Z,6.70
2022-10-11T19:39:33.813Z,6.60
2022-10-11T19:42:01.760Z,5.93
2022-10-11T19:44:29.290Z,5.97
2022-10-11T19:47:00.225Z,5.95
2022-10-11T19:49:30.458Z,6.33
2022-10-11T19:51:58.604Z,6.47
2022-10-11T19:54:26.385Z,6.47
2022-10-11T19:56:53.903Z,6.60
2022-10-11T19:59:22.359Z,6.40
2022-10-11T20:01:53.106Z,7.50
2022-10-11T20:07:09.310Z,8.88
2022-10-11T20:09:37.071Z,9.27
2022-10-11T20:12:04.700Z,8.73
2022-10-11T20:14:32.120Z,8.67
2022-10-11T20:16:59.839Z,8.52
2022-10-11T20:19:31.159Z,7.72
2022-10-11T20:22:00.549Z,7.80
2022-10-11T20:24:32.622Z,7.40
2022-10-11T20:27:05.367Z,8.17
2022-10-11T20:29:33.284Z,7.82
2022-10-11T20:32:00.774Z,7.95
2022-10-11T20:34:28.677Z,8.68
2022-10-11T20:36:56.413Z,8.82
2022-10-11T20:39:23.991Z,10.10
2022-10-11T20:41:51.416Z,11.43
2022-10-11T20:44:19.149Z,9.90
2022-10-11T20:46:46.583Z,10.48
2022-10-11T20:49:13.982Z,10.73
2022-10-11T20:51:42.277Z,10.30
2022-10-11T20:54:10.072Z,10.98
2022-10-11T20:56:37.995Z,11.00
2022-10-11T20:59:06.235Z,10.10
2022-10-11T21:01:42.833Z,10.13
2022-10-11T21:04:19.643Z,9.93
2022-10-11T21:06:47.929Z,10.82
2022-10-11T21:09:16.933Z,9.85
2022-10-11T21:11:44.887Z,9.05
2022-10-11T21:14:12.625Z,11.07
2022-10-11T21:16:40.388Z,11.20
2022-10-11T21:19:10.471Z,10.80
2022-10-11T21:21:37.946Z,11.20
2022-10-11T21:24:05.922Z,10.70
2022-10-11T21:26:35.212Z,9.95
2022-10-11T21:29:04.154Z,11.60
2022-10-11T21:31:34.258Z,10.82
2022-10-11T21:34:02.649Z,10.25
2022-10-11T21:36:30.140Z,10.43
2022-10-11T21:38:57.781Z,11.30
2022-10-11T21:41:26.612Z,10.97
2022-10-11T21:43:54.015Z,10.82
2022-10-11T21:46:32.582Z,10.48
2022-10-11T21:49:09.429Z,10.68
2022-10-11T21:51:37.165Z,10.80
2022-10-11T21:54:05.276Z,10.03
2022-10-11T21:56:32.710Z,11.60
2022-10-11T21:59:00.398Z,10.50
2022-10-11T22:01:27.857Z,11.02
2022-10-11T22:03:55.604Z,10.70
2022-10-11T22:06:23.028Z,10.73
2022-10-11T22:08:50.735Z,11.63
2022-10-11T22:11:18.560Z,11.00
2022-10-11T22:13:46.016Z,10.60
2022-10-11T22:16:13.654Z,12.55
2022-10-11T22:18:42.464Z,11.30
2022-10-11T22:21:18.720Z,11.50
2022-10-11T22:23:48.517Z,10.63
2022-10-11T22:26:21.008Z,11.45
2022-10-11T22:28:48.858Z,11.23
2022-10-11T22:31:18.306Z,11.63
2022-10-11T22:36:19.368Z,11.55
2022-10-11T22:38:47.037Z,10.88
2022-10-11T22:41:14.495Z,11.80
2022-10-11T22:43:42.265Z,11.50
2022-10-11T22:46:09.784Z,11.48
2022-10-11T22:48:37.552Z,11.68
2022-10-11T22:51:05.235Z,11.20
2022-10-11T22:53:32.756Z,11.68
2022-10-11T22:56:00.299Z,11.73
2022-10-11T22:58:28.001Z,11.50
2022-10-11T23:00:55.465Z,11.43
2022-10-11T23:03:22.945Z,12.43
2022-10-11T23:05:55.372Z,12.05
2022-10-11T23:08:23.060Z,12.47
2022-10-11T23:10:50.851Z,11.73
2022-10-11T23:13:18.429Z,12.60
2022-10-11T23:15:45.901Z,12.73
2022-10-11T23:18:15.945Z,13.23
2022-10-11T23:20:43.415Z,12.97
2022-10-11T23:23:10.852Z,12.90
2022-10-11T23:25:38.753Z,12.27
2022-10-11T23:28:06.233Z,13.32
2022-10-11T23:30:33.696Z,12.75
2022-10-11T23:33:01.383Z,13.17
2022-10-11T23:35:28.771Z,12.35
2022-10-11T23:37:56.160Z,13.45
2022-10-11T23:40:24.631Z,12.55
2022-10-11T23:42:52.016Z,13.07
2022-10-11T23:45:19.439Z,12.00
2022-10-11T23:47:47.307Z,13.13
2022-10-11T23:50:14.910Z,11.90
2022-10-11T23:52:42.470Z,13.07
2022-10-11T23:55:10.176Z,12.23
2022-10-11T23:57:37.810Z,12.47
